sensor_id;sensor_type;location;lat;lon;timestamp;pressure;altitude;pressure_sealevel;temperature;humidity
61870;BME280;47810;42.264;23.826;2023-04-10T00:01:06;93928.16;;;6.09;62.72
61870;BME280;47810;42.264;23.826;2023-04-10T00:03:31;93918.75;;;6.05;63.74
61870;BME280;47810;42.264;23.826;2023-04-10T00:06:01;93919.84;;;6.18;62.21
61870;BME280;47810;42.264;23.826;2023-04-10T00:08:27;93916.53;;;6.15;63.39
61870;BME280;47810;42.264;23.826;2023-04-10T00:10:52;93916.75;;;6.10;64.66
61870;BME280;47810;42.264;23.826;2023-04-10T00:13:18;93919.28;;;6.12;63.74
61870;BME280;47810;42.264;23.826;2023-04-10T00:15:44;93908.97;;;6.09;65.69
61870;BME280;47810;42.264;23.826;2023-04-10T00:18:10;93910.22;;;6.00;66.76
61870;BME280;47810;42.264;23.826;2023-04-10T00:20:36;93915.31;;;6.03;66.81
61870;BME280;47810;42.264;23.826;2023-04-10T00:23:02;93907.41;;;6.04;67.11
61870;BME280;47810;42.264;23.826;2023-04-10T00:25:27;93905.00;;;6.00;67.72
61870;BME280;47810;42.264;23.826;2023-04-10T00:27:53;93905.34;;;6.11;66.53
61870;BME280;47810;42.264;23.826;2023-04-10T00:30:18;93902.44;;;5.98;67.74
61870;BME280;47810;42.264;23.826;2023-04-10T00:32:45;93903.44;;;5.96;67.70
61870;BME280;47810;42.264;23.826;2023-04-10T00:35:10;93893.09;;;5.93;67.66
61870;BME280;47810;42.264;23.826;2023-04-10T00:37:37;93898.44;;;5.90;69.39
61870;BME280;47810;42.264;23.826;2023-04-10T00:40:03;93892.97;;;5.96;68.64
61870;BME280;47810;42.264;23.826;2023-04-10T00:42:31;93891.38;;;5.92;69.38
61870;BME280;47810;42.264;23.826;2023-04-10T00:44:57;93893.50;;;5.83;71.18
61870;BME280;47810;42.264;23.826;2023-04-10T02:21:14;93856.91;;;4.23;79.41
61870;BME280;47810;42.264;23.826;2023-04-10T02:23:44;93852.63;;;4.42;78.24
61870;BME280;47810;42.264;23.826;2023-04-10T02:26:10;93848.41;;;4.18;79.10
61870;BME280;47810;42.264;23.826;2023-04-10T02:28:48;93857.66;;;4.47;77.44
61870;BME280;47810;42.264;23.826;2023-04-10T02:31:13;93854.00;;;4.31;78.23
61870;BME280;47810;42.264;23.826;2023-04-10T02:33:43;93858.63;;;4.24;78.61
61870;BME280;47810;42.264;23.826;2023-04-10T02:36:10;93849.69;;;4.50;77.75
61870;BME280;47810;42.264;23.826;2023-04-10T02:38:35;93853.09;;;4.10;77.96
61870;BME280;47810;42.264;23.826;2023-04-10T02:41:01;93850.59;;;4.29;77.08
61870;BME280;47810;42.264;23.826;2023-04-10T02:43:26;93852.53;;;4.24;77.31
61870;BME280;47810;42.264;23.826;2023-04-10T02:45:52;93849.28;;;4.18;77.55
61870;BME280;47810;42.264;23.826;2023-04-10T02:48:20;93854.84;;;4.31;76.69
61870;BME280;47810;42.264;23.826;2023-04-10T02:50:54;93852.63;;;4.42;76.28
61870;BME280;47810;42.264;23.826;2023-04-10T02:53:26;93852.06;;;4.14;77.44
61870;BME280;47810;42.264;23.826;2023-04-10T02:55:52;93851.03;;;4.18;77.85
61870;BME280;47810;42.264;23.826;2023-04-10T02:58:18;93858.38;;;4.30;76.65
61870;BME280;47810;42.264;23.826;2023-04-10T03:00:49;93859.50;;;4.03;77.52
61870;BME280;47810;42.264;23.826;2023-04-10T03:03:20;93852.94;;;3.92;77.69
61870;BME280;47810;42.264;23.826;2023-04-10T03:05:46;93854.25;;;4.03;77.79
61870;BME280;47810;42.264;23.826;2023-04-10T03:08:15;93851.09;;;4.16;77.11
61870;BME280;47810;42.264;23.826;2023-04-10T03:10:49;93847.75;;;4.33;76.41
61870;BME280;47810;42.264;23.826;2023-04-10T03:13:15;93850.47;;;4.10;76.49
61870;BME280;47810;42.264;23.826;2023-04-10T03:15:50;93848.56;;;3.93;77.16
61870;BME280;47810;42.264;23.826;2023-04-10T03:18:15;93841.69;;;3.90;77.35
61870;BME280;47810;42.264;23.826;2023-04-10T03:20:41;93841.03;;;3.85;78.29
61870;BME280;47810;42.264;23.826;2023-04-10T03:23:07;93849.97;;;4.02;78.42
61870;BME280;47810;42.264;23.826;2023-04-10T03:25:33;93840.47;;;4.21;77.10
61870;BME280;47810;42.264;23.826;2023-04-10T03:28:01;93850.59;;;4.29;76.54
61870;BME280;47810;42.264;23.826;2023-04-10T03:30:27;93848.41;;;4.18;77.59
61870;BME280;47810;42.264;23.826;2023-04-10T03:32:55;93856.44;;;3.91;78.28
61870;BME280;47810;42.264;23.826;2023-04-10T03:35:21;93858.53;;;3.83;79.03
61870;BME280;47810;42.264;23.826;2023-04-10T03:37:50;93852.31;;;4.08;77.15
61870;BME280;47810;42.264;23.826;2023-04-10T03:40:18;93848.44;;;4.38;76.40
61870;BME280;47810;42.264;23.826;2023-04-10T03:42:44;93854.94;;;4.50;75.97
61870;BME280;47810;42.264;23.826;2023-04-10T03:45:10;93843.50;;;4.53;76.01
61870;BME280;47810;42.264;23.826;2023-04-10T03:47:35;93841.06;;;4.48;75.76
61870;BME280;47810;42.264;23.826;2023-04-10T03:50:01;93841.69;;;4.33;76.65
61870;BME280;47810;42.264;23.826;2023-04-10T03:52:30;93850.97;;;4.19;77.08
61870;BME280;47810;42.264;23.826;2023-04-10T03:54:56;93852.28;;;4.30;76.86
61870;BME280;47810;42.264;23.826;2023-04-10T03:57:22;93850.53;;;4.30;76.92
61870;BME280;47810;42.264;23.826;2023-04-10T03:59:48;93849.50;;;4.55;76.59
61870;BME280;47810;42.264;23.826;2023-04-10T04:02:14;93850.53;;;4.51;76.56
61870;BME280;47810;42.264;23.826;2023-04-10T04:04:40;93857.84;;;4.42;77.47
61870;BME280;47810;42.264;23.826;2023-04-10T04:07:05;93851.72;;;4.43;79.04
61870;BME280;47810;42.264;23.826;2023-04-10T04:09:31;93853.88;;;4.54;79.12
61870;BME280;47810;42.264;23.826;2023-04-10T04:11:57;93857.06;;;4.61;79.09
61870;BME280;47810;42.264;23.826;2023-04-10T04:14:22;93849.63;;;4.72;77.20
61870;BME280;47810;42.264;23.826;2023-04-10T04:16:48;93855.25;;;4.63;77.58
61870;BME280;47810;42.264;23.826;2023-04-10T04:19:14;93853.28;;;4.68;77.93
61870;BME280;47810;42.264;23.826;2023-04-10T04:21:40;93849.78;;;4.69;79.42
61870;BME280;47810;42.264;23.826;2023-04-10T04:24:06;93855.84;;;4.70;79.65
61870;BME280;47810;42.264;23.826;2023-04-10T04:26:32;93856.94;;;4.64;80.47
61870;BME280;47810;42.264;23.826;2023-04-10T04:28:58;93852.44;;;4.67;81.13
61870;BME280;47810;42.264;23.826;2023-04-10T04:31:23;93853.72;;;4.78;79.32
61870;BME280;47810;42.264;23.826;2023-04-10T04:33:49;93854.56;;;4.78;79.64
61870;BME280;47810;42.264;23.826;2023-04-10T04:36:15;93860.09;;;4.72;80.72
61870;BME280;47810;42.264;23.826;2023-04-10T04:38:41;93859.28;;;4.90;78.79
61870;BME280;47810;42.264;23.826;2023-04-10T04:41:07;93854.19;;;4.87;77.94
61870;BME280;47810;42.264;23.826;2023-04-10T04:43:32;93859.53;;;4.84;79.86
61870;BME280;47810;42.264;23.826;2023-04-10T04:45:58;93865.56;;;4.86;79.91
61870;BME280;47810;42.264;23.826;2023-04-10T04:48:24;93862.56;;;4.96;79.50
61870;BME280;47810;42.264;23.826;2023-04-10T04:50:50;93856.03;;;4.85;80.42
61870;BME280;47810;42.264;23.826;2023-04-10T04:53:17;93870.75;;;4.88;79.96
61870;BME280;47810;42.264;23.826;2023-04-10T04:55:43;93872.63;;;5.05;77.92
61870;BME280;47810;42.264;23.826;2023-04-10T04:58:09;93872.38;;;5.11;76.00
61870;BME280;47810;42.264;23.826;2023-04-10T05:00:36;93871.91;;;5.01;76.51
61870;BME280;47810;42.264;23.826;2023-04-10T05:03:02;93871.56;;;5.09;76.37
61870;BME280;47810;42.264;23.826;2023-04-10T05:05:28;93876.13;;;5.04;76.27
61870;BME280;47810;42.264;23.826;2023-04-10T05:07:54;93869.34;;;5.00;78.39
61870;BME280;47810;42.264;23.826;2023-04-10T05:10:21;93880.25;;;5.09;78.00
61870;BME280;47810;42.264;23.826;2023-04-10T05:12:47;93877.59;;;5.11;78.17
61870;BME280;47810;42.264;23.826;2023-04-10T05:15:13;93879.69;;;5.03;78.63
61870;BME280;47810;42.264;23.826;2023-04-10T05:17:39;93876.28;;;5.01;79.23
61870;BME280;47810;42.264;23.826;2023-04-10T05:20:04;93881.09;;;5.10;78.72
61870;BME280;47810;42.264;23.826;2023-04-10T05:22:35;93881.38;;;5.24;77.91
61870;BME280;47810;42.264;23.826;2023-04-10T05:25:02;93888.06;;;5.11;76.64
61870;BME280;47810;42.264;23.826;2023-04-10T05:27:28;93881.38;;;5.24;76.45
61870;BME280;47810;42.264;23.826;2023-04-10T05:29:54;93875.53;;;5.57;73.28
61870;BME280;47810;42.264;23.826;2023-04-10T05:32:20;93878.63;;;5.27;73.15
61870;BME280;47810;42.264;23.826;2023-04-10T05:34:47;93882.38;;;5.41;72.57
61870;BME280;47810;42.264;23.826;2023-04-10T05:37:13;93873.41;;;5.46;71.59
61870;BME280;47810;42.264;23.826;2023-04-10T05:39:39;93883.19;;;5.22;71.63
61870;BME280;47810;42.264;23.826;2023-04-10T05:42:06;93884.59;;;5.10;71.60
61870;BME280;47810;42.264;23.826;2023-04-10T05:44:31;93881.16;;;5.29;72.23
61870;BME280;47810;42.264;23.826;2023-04-10T05:46:57;93882.66;;;5.34;71.27
61870;BME280;47810;42.264;23.826;2023-04-10T05:49:22;93878.06;;;5.40;71.72
61870;BME280;47810;42.264;23.826;2023-04-10T05:51:48;93882.38;;;5.41;72.08
61870;BME280;47810;42.264;23.826;2023-04-10T05:54:15;93879.97;;;5.55;72.34
61870;BME280;47810;42.264;23.826;2023-04-10T05:56:41;93884.66;;;5.67;72.80
61870;BME280;47810;42.264;23.826;2023-04-10T05:59:06;93877.84;;;5.82;72.30
61870;BME280;47810;42.264;23.826;2023-04-10T06:01:32;93876.72;;;5.88;72.20
61870;BME280;47810;42.264;23.826;2023-04-10T06:03:57;93885.09;;;5.96;72.58
61870;BME280;47810;42.264;23.826;2023-04-10T06:06:24;93889.25;;;6.00;72.47
61870;BME280;47810;42.264;23.826;2023-04-10T06:08:51;93888.19;;;6.23;73.37
61870;BME280;47810;42.264;23.826;2023-04-10T06:11:16;93897.19;;;6.17;73.65
61870;BME280;47810;42.264;23.826;2023-04-10T06:13:42;93890.28;;;6.34;74.07
61870;BME280;47810;42.264;23.826;2023-04-10T06:16:07;93888.84;;;6.45;72.88
61870;BME280;47810;42.264;23.826;2023-04-10T06:18:33;93883.25;;;6.34;73.79
61870;BME280;47810;42.264;23.826;2023-04-10T06:20:59;93883.59;;;6.09;74.33
61870;BME280;47810;42.264;23.826;2023-04-10T06:23:29;93890.81;;;5.85;76.23
61870;BME280;47810;42.264;23.826;2023-04-10T06:25:54;93883.00;;;5.83;76.52
61870;BME280;47810;42.264;23.826;2023-04-10T06:28:21;93886.13;;;5.92;75.89
61870;BME280;47810;42.264;23.826;2023-04-10T06:30:47;93884.72;;;6.03;76.01
61870;BME280;47810;42.264;23.826;2023-04-10T06:33:14;93884.56;;;6.06;76.36
61870;BME280;47810;42.264;23.826;2023-04-10T06:35:40;93887.13;;;6.08;76.36
61870;BME280;47810;42.264;23.826;2023-04-10T06:38:07;93891.50;;;6.26;75.30
61870;BME280;47810;42.264;23.826;2023-04-10T06:40:33;93891.03;;;6.18;75.58
61870;BME280;47810;42.264;23.826;2023-04-10T06:42:59;93889.94;;;6.22;75.75
61870;BME280;47810;42.264;23.826;2023-04-10T06:45:26;93891.88;;;6.00;75.02
61870;BME280;47810;42.264;23.826;2023-04-10T06:47:52;93888.25;;;6.21;75.01
61870;BME280;47810;42.264;23.826;2023-04-10T06:50:18;93893.19;;;6.27;74.98
61870;BME280;47810;42.264;23.826;2023-04-10T06:52:44;93894.44;;;6.38;75.13
61870;BME280;47810;42.264;23.826;2023-04-10T06:55:11;93885.34;;;6.45;74.19
61870;BME280;47810;42.264;23.826;2023-04-10T06:57:39;93891.88;;;6.19;72.88
61870;BME280;47810;42.264;23.826;2023-04-10T07:00:06;93888.50;;;6.34;73.18
61870;BME280;47810;42.264;23.826;2023-04-10T07:02:35;93888.75;;;6.47;73.83
61870;BME280;47810;42.264;23.826;2023-04-10T07:05:00;93894.16;;;6.61;73.64
61870;BME280;47810;42.264;23.826;2023-04-10T07:07:27;93891.53;;;6.61;73.73
61870;BME280;47810;42.264;23.826;2023-04-10T07:09:54;93898.22;;;6.68;74.35
61870;BME280;47810;42.264;23.826;2023-04-10T07:12:20;93894.66;;;6.69;73.63
61870;BME280;47810;42.264;23.826;2023-04-10T07:14:48;93897.41;;;6.66;73.41
61870;BME280;47810;42.264;23.826;2023-04-10T07:17:13;93898.50;;;6.80;71.18
61870;BME280;47810;42.264;23.826;2023-04-10T07:19:39;93892.81;;;6.71;72.21
61870;BME280;47810;42.264;23.826;2023-04-10T07:22:06;93892.03;;;6.69;70.60
61870;BME280;47810;42.264;23.826;2023-04-10T07:24:32;93890.94;;;6.73;71.70
61870;BME280;47810;42.264;23.826;2023-04-10T07:26:59;93892.00;;;6.87;70.39
61870;BME280;47810;42.264;23.826;2023-04-10T07:29:26;93888.56;;;7.04;67.37
61870;BME280;47810;42.264;23.826;2023-04-10T07:31:51;93889.09;;;7.10;69.04
61870;BME280;47810;42.264;23.826;2023-04-10T07:34:17;93892.03;;;7.37;69.55
61870;BME280;47810;42.264;23.826;2023-04-10T07:36:43;93893.59;;;7.57;67.95
61870;BME280;47810;42.264;23.826;2023-04-10T07:39:10;93883.63;;;7.64;67.60
61870;BME280;47810;42.264;23.826;2023-04-10T07:41:35;93893.75;;;7.38;66.18
61870;BME280;47810;42.264;23.826;2023-04-10T07:44:02;93889.09;;;7.43;68.63
61870;BME280;47810;42.264;23.826;2023-04-10T07:46:29;93884.81;;;7.58;67.89
61870;BME280;47810;42.264;23.826;2023-04-10T07:48:54;93886.66;;;7.56;66.81
61870;BME280;47810;42.264;23.826;2023-04-10T07:51:21;93884.69;;;7.44;67.59
61870;BME280;47810;42.264;23.826;2023-04-10T07:53:46;93891.97;;;7.39;69.60
61870;BME280;47810;42.264;23.826;2023-04-10T07:56:15;93882.69;;;7.49;69.72
61870;BME280;47810;42.264;23.826;2023-04-10T07:58:42;93880.06;;;7.49;70.24
61870;BME280;47810;42.264;23.826;2023-04-10T08:01:08;93881.09;;;7.62;69.50
61870;BME280;47810;42.264;23.826;2023-04-10T08:03:38;93883.72;;;7.62;68.04
61870;BME280;47810;42.264;23.826;2023-04-10T08:06:05;93884.94;;;7.39;68.14
61870;BME280;47810;42.264;23.826;2023-04-10T08:08:37;93880.69;;;7.37;68.71
61870;BME280;47810;42.264;23.826;2023-04-10T08:11:03;93887.06;;;7.15;68.96
61870;BME280;47810;42.264;23.826;2023-04-10T08:13:29;93891.19;;;7.37;68.47
61870;BME280;47810;42.264;23.826;2023-04-10T08:15:54;93893.03;;;7.35;68.66
61870;BME280;47810;42.264;23.826;2023-04-10T08:18:20;93882.69;;;7.32;66.75
61870;BME280;47810;42.264;23.826;2023-04-10T08:20:46;93886.53;;;7.09;67.98
61870;BME280;47810;42.264;23.826;2023-04-10T08:23:11;93887.94;;;7.32;66.94
61870;BME280;47810;42.264;23.826;2023-04-10T08:25:37;93886.94;;;7.01;67.75
61870;BME280;47810;42.264;23.826;2023-04-10T08:28:02;93897.09;;;7.24;68.42
61870;BME280;47810;42.264;23.826;2023-04-10T08:30:28;93892.78;;;7.23;67.56
61870;BME280;47810;42.264;23.826;2023-04-10T08:32:54;93891.69;;;6.93;66.48
61870;BME280;47810;42.264;23.826;2023-04-10T08:35:20;93890.16;;;7.06;67.67
61870;BME280;47810;42.264;23.826;2023-04-10T08:37:46;93891.09;;;7.22;67.65
61870;BME280;47810;42.264;23.826;2023-04-10T08:40:11;93886.09;;;7.34;67.57
61870;BME280;47810;42.264;23.826;2023-04-10T08:42:37;93894.81;;;7.34;67.97
61870;BME280;47810;42.264;23.826;2023-04-10T08:45:03;93888.31;;;7.41;67.76
61870;BME280;47810;42.264;23.826;2023-04-10T08:47:28;93884.41;;;7.33;68.08
61870;BME280;47810;42.264;23.826;2023-04-10T08:50:00;93884.38;;;7.50;68.15
61870;BME280;47810;42.264;23.826;2023-04-10T08:52:30;93885.31;;;7.49;68.22
61870;BME280;47810;42.264;23.826;2023-04-10T08:54:59;93879.97;;;7.66;67.56
61870;BME280;47810;42.264;23.826;2023-04-10T08:57:26;93879.66;;;7.73;65.91
61870;BME280;47810;42.264;23.826;2023-04-10T08:59:53;93879.44;;;7.44;66.22
61870;BME280;47810;42.264;23.826;2023-04-10T09:02:19;93878.75;;;7.40;66.98
61870;BME280;47810;42.264;23.826;2023-04-10T09:04:48;93876.97;;;7.41;67.45
61870;BME280;47810;42.264;23.826;2023-04-10T09:07:15;93883.78;;;7.45;66.63
61870;BME280;47810;42.264;23.826;2023-04-10T09:09:41;93886.75;;;7.21;66.88
61870;BME280;47810;42.264;23.826;2023-04-10T09:12:07;93877.75;;;7.43;67.23
61870;BME280;47810;42.264;23.826;2023-04-10T09:14:34;93884.81;;;7.58;66.16
61870;BME280;47810;42.264;23.826;2023-04-10T09:19:41;93877.44;;;7.16;67.56
61870;BME280;47810;42.264;23.826;2023-04-10T09:22:07;93881.22;;;6.93;66.76
61870;BME280;47810;42.264;23.826;2023-04-10T09:24:34;93882.47;;;7.03;68.07
61870;BME280;47810;42.264;23.826;2023-04-10T09:27:01;93885.91;;;7.21;68.00
61870;BME280;47810;42.264;23.826;2023-04-10T09:29:26;93887.03;;;7.33;68.85
61870;BME280;47810;42.264;23.826;2023-04-10T09:32:02;93882.38;;;7.38;68.72
61870;BME280;47810;42.264;23.826;2023-04-10T09:34:27;93871.53;;;7.61;68.55
61870;BME280;47810;42.264;23.826;2023-04-10T09:36:55;93866.25;;;7.61;68.03
61870;BME280;47810;42.264;23.826;2023-04-10T09:39:29;93862.59;;;7.48;67.82
61870;BME280;47810;42.264;23.826;2023-04-10T09:41:58;93861.78;;;7.79;69.39
61870;BME280;47810;42.264;23.826;2023-04-10T09:44:31;93868.56;;;7.99;66.41
61870;BME280;47810;42.264;23.826;2023-04-10T09:46:58;93857.63;;;7.91;62.85
61870;BME280;47810;42.264;23.826;2023-04-10T09:49:24;93864.50;;;7.78;64.19
61870;BME280;47810;42.264;23.826;2023-04-10T09:51:50;93857.63;;;7.91;65.56
61870;BME280;47810;42.264;23.826;2023-04-10T09:54:16;93853.66;;;8.15;65.50
61870;BME280;47810;42.264;23.826;2023-04-10T09:56:43;93848.63;;;8.27;65.68
61870;BME280;47810;42.264;23.826;2023-04-10T09:59:10;93838.97;;;8.11;64.14
61870;BME280;47810;42.264;23.826;2023-04-10T10:01:38;93848.41;;;7.84;63.13
61870;BME280;47810;42.264;23.826;2023-04-10T10:04:04;93845.16;;;8.10;63.89
61870;BME280;47810;42.264;23.826;2023-04-10T10:06:30;93845.00;;;8.13;61.52
61870;BME280;47810;42.264;23.826;2023-04-10T10:09:00;93839.72;;;8.13;64.21
61870;BME280;47810;42.264;23.826;2023-04-10T10:11:27;93842.06;;;8.34;62.47
61870;BME280;47810;42.264;23.826;2023-04-10T10:13:57;93837.34;;;8.40;62.61
61870;BME280;47810;42.264;23.826;2023-04-10T10:21:18;93840.22;;;8.20;59.82
61870;BME280;47810;42.264;23.826;2023-04-10T10:23:45;93830.72;;;8.49;59.50
61870;BME280;47810;42.264;23.826;2023-04-10T10:26:11;93834.47;;;8.45;62.26
61870;BME280;47810;42.264;23.826;2023-04-10T10:28:39;93834.63;;;8.42;61.49
61870;BME280;47810;42.264;23.826;2023-04-10T10:31:08;93821.56;;;8.25;60.14
61870;BME280;47810;42.264;23.826;2023-04-10T10:33:35;93817.91;;;8.43;61.22
61870;BME280;47810;42.264;23.826;2023-04-10T10:36:02;93816.59;;;8.50;59.25
61870;BME280;47810;42.264;23.826;2023-04-10T10:38:29;93811.44;;;8.79;61.88
61870;BME280;47810;42.264;23.826;2023-04-10T10:46:09;93800.28;;;8.59;59.49
61870;BME280;47810;42.264;23.826;2023-04-10T10:48:37;93797.44;;;8.48;59.36
61870;BME280;47810;42.264;23.826;2023-04-10T10:51:02;93790.88;;;9.00;60.44
61870;BME280;47810;42.264;23.826;2023-04-10T10:53:32;93793.59;;;8.84;59.17
61870;BME280;47810;42.264;23.826;2023-04-10T10:56:00;93786.94;;;8.93;58.36
61870;BME280;47810;42.264;23.826;2023-04-10T10:58:51;93790.25;;;9.25;56.06
61870;BME280;47810;42.264;23.826;2023-04-10T11:01:17;93790.78;;;9.30;57.36
61870;BME280;47810;42.264;23.826;2023-04-10T11:03:43;93774.66;;;9.77;54.73
61870;BME280;47810;42.264;23.826;2023-04-10T11:06:10;93781.84;;;9.88;58.29
61870;BME280;47810;42.264;23.826;2023-04-10T11:11:14;93790.91;;;9.84;56.43
61870;BME280;47810;42.264;23.826;2023-04-10T11:13:41;93777.41;;;9.76;56.40
61870;BME280;47810;42.264;23.826;2023-04-10T11:16:07;93780.75;;;9.78;56.42
61870;BME280;47810;42.264;23.826;2023-04-10T11:23:37;93767.63;;;10.05;55.30
61870;BME280;47810;42.264;23.826;2023-04-10T11:26:03;93768.69;;;10.42;55.06
61870;BME280;47810;42.264;23.826;2023-04-10T11:28:32;93770.00;;;10.62;57.22
61870;BME280;47810;42.264;23.826;2023-04-10T11:33:46;93764.63;;;10.64;57.00
61870;BME280;47810;42.264;23.826;2023-04-10T11:36:13;93760.75;;;10.82;56.89
61870;BME280;47810;42.264;23.826;2023-04-10T11:38:40;93760.88;;;10.93;56.18
61870;BME280;47810;42.264;23.826;2023-04-10T11:41:06;93760.13;;;11.04;54.15
61870;BME280;47810;42.264;23.826;2023-04-10T11:43:32;93758.97;;;11.08;55.09
61870;BME280;47810;42.264;23.826;2023-04-10T11:45:58;93758.78;;;11.11;56.68
61870;BME280;47810;42.264;23.826;2023-04-10T11:48:24;93761.28;;;10.87;53.94
61870;BME280;47810;42.264;23.826;2023-04-10T11:50:51;93760.03;;;11.06;54.66
61870;BME280;47810;42.264;23.826;2023-04-10T11:53:17;93753.47;;;11.24;52.90
61870;BME280;47810;42.264;23.826;2023-04-10T11:55:43;93747.34;;;11.36;53.86
61870;BME280;47810;42.264;23.826;2023-04-10T11:58:25;93742.28;;;11.33;52.82
61870;BME280;47810;42.264;23.826;2023-04-10T12:01:03;93738.66;;;11.34;52.06
61870;BME280;47810;42.264;23.826;2023-04-10T12:03:30;93750.31;;;11.19;52.57
61870;BME280;47810;42.264;23.826;2023-04-10T12:05:56;93739.53;;;10.96;53.40
61870;BME280;47810;42.264;23.826;2023-04-10T12:08:28;93738.47;;;10.99;50.63
61870;BME280;47810;42.264;23.826;2023-04-10T12:10:54;93729.78;;;11.10;53.61
61870;BME280;47810;42.264;23.826;2023-04-10T12:13:27;93727.25;;;11.21;50.36
61870;BME280;47810;42.264;23.826;2023-04-10T12:15:56;93731.19;;;11.03;51.67
61870;BME280;47810;42.264;23.826;2023-04-10T12:18:23;93712.47;;;10.93;53.55
61870;BME280;47810;42.264;23.826;2023-04-10T12:20:49;93724.09;;;11.03;53.54
61870;BME280;47810;42.264;23.826;2023-04-10T12:23:16;93712.25;;;11.09;54.69
61870;BME280;47810;42.264;23.826;2023-04-10T12:25:42;93710.47;;;11.09;54.61
61870;BME280;47810;42.264;23.826;2023-04-10T12:28:08;93711.00;;;11.14;51.65
61870;BME280;47810;42.264;23.826;2023-04-10T12:30:33;93702.25;;;10.88;50.86
61870;BME280;47810;42.264;23.826;2023-04-10T12:33:00;93706.66;;;10.75;49.25
61870;BME280;47810;42.264;23.826;2023-04-10T12:35:39;93706.34;;;10.67;51.38
61870;BME280;47810;42.264;23.826;2023-04-10T12:38:06;93709.06;;;10.65;52.94
61870;BME280;47810;42.264;23.826;2023-04-10T12:40:32;93698.94;;;10.98;54.11
61870;BME280;47810;42.264;23.826;2023-04-10T12:42:57;93696.97;;;11.01;53.91
61870;BME280;47810;42.264;23.826;2023-04-10T12:45:42;93689.94;;;11.13;54.02
61870;BME280;47810;42.264;23.826;2023-04-10T12:48:08;93684.66;;;11.26;51.27
61870;BME280;47810;42.264;23.826;2023-04-10T12:50:33;93683.38;;;11.31;53.40
61870;BME280;47810;42.264;23.826;2023-04-10T12:53:10;93688.94;;;11.39;52.77
61870;BME280;47810;42.264;23.826;2023-04-10T12:55:39;93678.91;;;11.45;53.12
61870;BME280;47810;42.264;23.826;2023-04-10T12:58:16;93682.59;;;11.42;53.15
61870;BME280;47810;42.264;23.826;2023-04-10T13:00:42;93682.94;;;11.37;51.59
61870;BME280;47810;42.264;23.826;2023-04-10T13:03:08;93677.31;;;11.42;51.34
61870;BME280;47810;42.264;23.826;2023-04-10T13:05:33;93674.84;;;11.52;51.94
61870;BME280;47810;42.264;23.826;2023-04-10T13:07:59;93675.19;;;11.47;51.83
61870;BME280;47810;42.264;23.826;2023-04-10T13:10:25;93670.84;;;11.59;51.99
61870;BME280;47810;42.264;23.826;2023-04-10T13:12:51;93665.59;;;11.70;52.23
61870;BME280;47810;42.264;23.826;2023-04-10T13:15:16;93662.16;;;11.81;48.81
61870;BME280;47810;42.264;23.826;2023-04-10T13:17:42;93659.88;;;11.76;50.28
61870;BME280;47810;42.264;23.826;2023-04-10T13:20:08;93656.38;;;11.76;52.42
61870;BME280;47810;42.264;23.826;2023-04-10T13:22:34;93642.09;;;11.78;51.36
61870;BME280;47810;42.264;23.826;2023-04-10T13:25:00;93640.22;;;11.68;50.96
61870;BME280;47810;42.264;23.826;2023-04-10T13:27:27;93642.28;;;11.88;51.69
61870;BME280;47810;42.264;23.826;2023-04-10T13:29:53;93635.38;;;12.09;48.73
61870;BME280;47810;42.264;23.826;2023-04-10T13:32:19;93640.06;;;12.06;52.04
61870;BME280;47810;42.264;23.826;2023-04-10T13:34:45;93632.34;;;12.03;51.44
61870;BME280;47810;42.264;23.826;2023-04-10T13:37:11;93628.56;;;12.18;48.84
61870;BME280;47810;42.264;23.826;2023-04-10T13:39:37;93630.00;;;12.22;50.90
61870;BME280;47810;42.264;23.826;2023-04-10T13:42:04;93626.88;;;12.17;51.07
61870;BME280;47810;42.264;23.826;2023-04-10T13:44:31;93626.38;;;12.12;51.21
61870;BME280;47810;42.264;23.826;2023-04-10T13:46:56;93626.50;;;12.10;50.06
61870;BME280;47810;42.264;23.826;2023-04-10T13:49:23;93626.81;;;12.06;49.30
61870;BME280;47810;42.264;23.826;2023-04-10T13:51:49;93627.19;;;12.01;50.40
61870;BME280;47810;42.264;23.826;2023-04-10T13:54:15;93621.28;;;11.98;51.16
61870;BME280;47810;42.264;23.826;2023-04-10T13:56:42;93624.63;;;12.00;50.35
61870;BME280;47810;42.264;23.826;2023-04-10T13:59:08;93625.09;;;11.94;50.17
61870;BME280;47810;42.264;23.826;2023-04-10T14:01:35;93622.13;;;11.98;49.12
61870;BME280;47810;42.264;23.826;2023-04-10T14:04:01;93624.03;;;11.96;49.26
61870;BME280;47810;42.264;23.826;2023-04-10T14:06:29;93627.75;;;11.94;49.80
61870;BME280;47810;42.264;23.826;2023-04-10T14:08:56;93625.38;;;12.02;48.56
61870;BME280;47810;42.264;23.826;2023-04-10T14:11:22;93617.50;;;11.89;49.27
61870;BME280;47810;42.264;23.826;2023-04-10T14:13:48;93619.44;;;11.74;51.40
61870;BME280;47810;42.264;23.826;2023-04-10T14:16:14;93616.75;;;11.63;51.38
61870;BME280;47810;42.264;23.826;2023-04-10T14:18:41;93620.03;;;11.66;51.25
61870;BME280;47810;42.264;23.826;2023-04-10T14:21:11;93623.72;;;11.64;51.29
61870;BME280;47810;42.264;23.826;2023-04-10T14:23:36;93615.78;;;11.64;51.08
61870;BME280;47810;42.264;23.826;2023-04-10T14:26:05;93613.16;;;11.64;51.92
61870;BME280;47810;42.264;23.826;2023-04-10T14:28:31;93607.47;;;11.57;52.50
61870;BME280;47810;42.264;23.826;2023-04-10T14:30:57;93610.06;;;11.70;50.25
61870;BME280;47810;42.264;23.826;2023-04-10T14:33:23;93613.38;;;11.61;52.11
61870;BME280;47810;42.264;23.826;2023-04-10T14:35:48;93608.63;;;11.77;51.54
61870;BME280;47810;42.264;23.826;2023-04-10T14:38:14;93614.38;;;11.71;51.22
61870;BME280;47810;42.264;23.826;2023-04-10T14:40:40;93612.75;;;11.57;52.72
61870;BME280;47810;42.264;23.826;2023-04-10T14:43:06;93606.06;;;11.40;52.91
61870;BME280;47810;42.264;23.826;2023-04-10T14:45:33;93612.44;;;11.25;52.77
61870;BME280;47810;42.264;23.826;2023-04-10T14:47:59;93609.03;;;11.36;52.36
61870;BME280;47810;42.264;23.826;2023-04-10T14:50:26;93614.34;;;11.23;52.75
61870;BME280;47810;42.264;23.826;2023-04-10T14:52:52;93614.91;;;11.15;52.81